Terminal Aerodrome Forecast
Issued by NWS

Home | Current Version | Previous Version | Text Only | Print | Product List | Glossary On
Versions: 1 2 3 4 5 6 7 8 9 10 11 12 13 14 15 16 17 18 19
000
FTUS42 KMLB 230540
TAFFPR
TAF
KFPR 230540Z 2306/2406 29003KT P6SM SCT020 SCT120
      TEMPO 2306/2309 BKN020
     FM230900 25004KT P6SM SCT008 BKN015
      TEMPO 2309/2313 5SM BR OVC008
     FM231400 25007KT P6SM BKN020 BKN035
     FM231800 29008KT P6SM SCT015 BKN040=

USA.gov is the U.S. government's official web portal to all federal, state and local government web resources and services.